sensor_id;sensor_type;location;lat;lon;timestamp;temperature;humidity
4695;DHT22;2361;49.540;8.390;2024-03-08T00:01:49;7.20;99.90
4695;DHT22;2361;49.540;8.390;2024-03-08T00:04:11;7.10;99.90
4695;DHT22;2361;49.540;8.390;2024-03-08T00:06:33;7.10;99.90
4695;DHT22;2361;49.540;8.390;2024-03-08T00:08:55;7.10;99.90
4695;DHT22;2361;49.540;8.390;2024-03-08T00:11:17;7.10;99.90
4695;DHT22;2361;49.540;8.390;2024-03-08T00:13:40;7.00;99.90
4695;DHT22;2361;49.540;8.390;2024-03-08T00:16:02;7.00;99.90
4695;DHT22;2361;49.540;8.390;2024-03-08T00:18:24;7.00;99.90
4695;DHT22;2361;49.540;8.390;2024-03-08T00:20:46;6.90;99.90
4695;DHT22;2361;49.540;8.390;2024-03-08T00:23:08;6.90;99.90
4695;DHT22;2361;49.540;8.390;2024-03-08T00:25:30;6.90;99.90
4695;DHT22;2361;49.540;8.390;2024-03-08T00:27:52;6.80;99.90
4695;DHT22;2361;49.540;8.390;2024-03-08T00:30:17;6.80;99.90
4695;DHT22;2361;49.540;8.390;2024-03-08T00:32:39;6.70;99.90
4695;DHT22;2361;49.540;8.390;2024-03-08T00:35:02;6.70;99.90
4695;DHT22;2361;49.540;8.390;2024-03-08T00:37:24;6.70;99.90
4695;DHT22;2361;49.540;8.390;2024-03-08T00:39:46;6.60;99.90
4695;DHT22;2361;49.540;8.390;2024-03-08T00:42:08;6.60;99.90
4695;DHT22;2361;49.540;8.390;2024-03-08T00:44:30;6.60;99.90
4695;DHT22;2361;49.540;8.390;2024-03-08T00:46:53;6.60;99.90
4695;DHT22;2361;49.540;8.390;2024-03-08T00:49:16;6.60;99.90
4695;DHT22;2361;49.540;8.390;2024-03-08T00:51:38;6.60;99.90
4695;DHT22;2361;49.540;8.390;2024-03-08T00:54:00;6.60;99.90
4695;DHT22;2361;49.540;8.390;2024-03-08T00:56:22;6.60;99.90
4695;DHT22;2361;49.540;8.390;2024-03-08T00:58:46;6.50;99.90
4695;DHT22;2361;49.540;8.390;2024-03-08T01:01:08;6.40;99.90
4695;DHT22;2361;49.540;8.390;2024-03-08T01:03:31;6.50;99.90
4695;DHT22;2361;49.540;8.390;2024-03-08T01:05:54;6.40;99.90
4695;DHT22;2361;49.540;8.390;2024-03-08T01:08:16;6.30;99.90
4695;DHT22;2361;49.540;8.390;2024-03-08T01:10:38;6.30;99.90
4695;DHT22;2361;49.540;8.390;2024-03-08T01:13:00;6.30;99.90
4695;DHT22;2361;49.540;8.390;2024-03-08T01:15:23;6.30;99.90
4695;DHT22;2361;49.540;8.390;2024-03-08T01:17:45;6.30;99.90
4695;DHT22;2361;49.540;8.390;2024-03-08T01:20:08;6.20;99.90
4695;DHT22;2361;49.540;8.390;2024-03-08T01:22:32;6.20;99.90
4695;DHT22;2361;49.540;8.390;2024-03-08T01:24:54;6.10;99.90
4695;DHT22;2361;49.540;8.390;2024-03-08T01:27:17;6.10;99.90
4695;DHT22;2361;49.540;8.390;2024-03-08T01:29:39;6.10;99.90
4695;DHT22;2361;49.540;8.390;2024-03-08T01:32:01;6.10;99.90
4695;DHT22;2361;49.540;8.390;2024-03-08T01:34:25;6.00;99.90
4695;DHT22;2361;49.540;8.390;2024-03-08T01:36:50;6.00;99.90
4695;DHT22;2361;49.540;8.390;2024-03-08T01:39:12;6.00;99.90
4695;DHT22;2361;49.540;8.390;2024-03-08T01:41:34;5.90;99.90
4695;DHT22;2361;49.540;8.390;2024-03-08T01:43:57;6.00;99.90
4695;DHT22;2361;49.540;8.390;2024-03-08T01:46:19;6.00;99.90
4695;DHT22;2361;49.540;8.390;2024-03-08T01:48:44;5.90;99.90
4695;DHT22;2361;49.540;8.390;2024-03-08T01:51:07;5.90;99.90
4695;DHT22;2361;49.540;8.390;2024-03-08T01:53:30;5.90;99.90
4695;DHT22;2361;49.540;8.390;2024-03-08T01:55:55;5.90;99.90
4695;DHT22;2361;49.540;8.390;2024-03-08T01:58:19;5.90;99.90
4695;DHT22;2361;49.540;8.390;2024-03-08T02:00:48;5.90;99.90
4695;DHT22;2361;49.540;8.390;2024-03-08T02:03:13;5.90;99.90
4695;DHT22;2361;49.540;8.390;2024-03-08T02:05:35;5.90;99.90
4695;DHT22;2361;49.540;8.390;2024-03-08T02:07:58;5.90;99.90
4695;DHT22;2361;49.540;8.390;2024-03-08T02:10:20;5.90;99.90
4695;DHT22;2361;49.540;8.390;2024-03-08T02:12:44;5.90;99.90
4695;DHT22;2361;49.540;8.390;2024-03-08T02:15:08;5.80;99.90
4695;DHT22;2361;49.540;8.390;2024-03-08T02:17:30;5.80;99.90
4695;DHT22;2361;49.540;8.390;2024-03-08T02:19:52;5.80;99.90
4695;DHT22;2361;49.540;8.390;2024-03-08T02:22:15;5.80;99.90
4695;DHT22;2361;49.540;8.390;2024-03-08T02:24:36;5.70;99.90
4695;DHT22;2361;49.540;8.390;2024-03-08T02:26:58;5.70;99.90
4695;DHT22;2361;49.540;8.390;2024-03-08T02:29:21;5.70;99.90
4695;DHT22;2361;49.540;8.390;2024-03-08T02:31:43;5.60;99.90
4695;DHT22;2361;49.540;8.390;2024-03-08T02:34:05;5.60;99.90
4695;DHT22;2361;49.540;8.390;2024-03-08T02:36:27;5.60;99.90
4695;DHT22;2361;49.540;8.390;2024-03-08T02:38:49;5.60;99.90
4695;DHT22;2361;49.540;8.390;2024-03-08T02:41:11;5.60;99.90
4695;DHT22;2361;49.540;8.390;2024-03-08T02:43:34;5.60;99.90
4695;DHT22;2361;49.540;8.390;2024-03-08T02:45:56;5.50;99.90
4695;DHT22;2361;49.540;8.390;2024-03-08T02:48:18;5.60;99.90
4695;DHT22;2361;49.540;8.390;2024-03-08T02:50:40;5.50;99.90
4695;DHT22;2361;49.540;8.390;2024-03-08T02:53:04;5.50;99.90
4695;DHT22;2361;49.540;8.390;2024-03-08T02:55:26;5.50;99.90
4695;DHT22;2361;49.540;8.390;2024-03-08T02:57:48;5.40;99.90
4695;DHT22;2361;49.540;8.390;2024-03-08T03:00:10;5.40;99.90
4695;DHT22;2361;49.540;8.390;2024-03-08T03:02:33;5.40;99.90
4695;DHT22;2361;49.540;8.390;2024-03-08T03:04:55;5.40;99.90
4695;DHT22;2361;49.540;8.390;2024-03-08T03:07:17;5.50;99.90
4695;DHT22;2361;49.540;8.390;2024-03-08T03:09:39;5.50;99.90
4695;DHT22;2361;49.540;8.390;2024-03-08T03:12:02;5.40;99.90
4695;DHT22;2361;49.540;8.390;2024-03-08T03:14:24;5.40;99.90
4695;DHT22;2361;49.540;8.390;2024-03-08T03:16:48;5.40;99.90
4695;DHT22;2361;49.540;8.390;2024-03-08T03:19:11;5.40;99.90
4695;DHT22;2361;49.540;8.390;2024-03-08T03:21:33;5.50;99.90
4695;DHT22;2361;49.540;8.390;2024-03-08T03:23:57;5.50;99.90
4695;DHT22;2361;49.540;8.390;2024-03-08T03:26:20;5.50;99.90
4695;DHT22;2361;49.540;8.390;2024-03-08T03:28:43;5.50;99.90
4695;DHT22;2361;49.540;8.390;2024-03-08T03:31:07;5.50;99.90
4695;DHT22;2361;49.540;8.390;2024-03-08T03:33:31;5.50;99.90
4695;DHT22;2361;49.540;8.390;2024-03-08T03:35:55;5.40;99.90
4695;DHT22;2361;49.540;8.390;2024-03-08T03:38:18;5.40;99.90
4695;DHT22;2361;49.540;8.390;2024-03-08T03:40:41;5.40;99.90
4695;DHT22;2361;49.540;8.390;2024-03-08T03:43:03;5.40;99.90
4695;DHT22;2361;49.540;8.390;2024-03-08T03:45:25;5.40;99.90
4695;DHT22;2361;49.540;8.390;2024-03-08T03:47:47;5.40;99.90
4695;DHT22;2361;49.540;8.390;2024-03-08T03:50:10;5.40;99.90
4695;DHT22;2361;49.540;8.390;2024-03-08T03:52:32;5.30;99.90
4695;DHT22;2361;49.540;8.390;2024-03-08T03:54:54;5.30;99.90
4695;DHT22;2361;49.540;8.390;2024-03-08T03:57:16;5.20;99.90
4695;DHT22;2361;49.540;8.390;2024-03-08T03:59:39;5.20;99.90
4695;DHT22;2361;49.540;8.390;2024-03-08T04:02:02;5.20;99.90
4695;DHT22;2361;49.540;8.390;2024-03-08T04:04:25;5.20;99.90
4695;DHT22;2361;49.540;8.390;2024-03-08T04:06:47;5.20;99.90
4695;DHT22;2361;49.540;8.390;2024-03-08T04:09:09;5.10;99.90
4695;DHT22;2361;49.540;8.390;2024-03-08T04:11:31;5.10;99.90
4695;DHT22;2361;49.540;8.390;2024-03-08T04:13:53;5.10;99.90
4695;DHT22;2361;49.540;8.390;2024-03-08T04:16:16;5.00;99.90
4695;DHT22;2361;49.540;8.390;2024-03-08T04:18:38;4.90;99.90
4695;DHT22;2361;49.540;8.390;2024-03-08T04:21:00;4.90;99.90
4695;DHT22;2361;49.540;8.390;2024-03-08T04:23:23;4.90;99.90
4695;DHT22;2361;49.540;8.390;2024-03-08T04:25:45;4.80;99.90
4695;DHT22;2361;49.540;8.390;2024-03-08T04:28:08;4.80;99.90
4695;DHT22;2361;49.540;8.390;2024-03-08T04:30:33;4.80;99.90
4695;DHT22;2361;49.540;8.390;2024-03-08T04:32:55;4.80;99.90
4695;DHT22;2361;49.540;8.390;2024-03-08T04:35:17;4.80;99.90
4695;DHT22;2361;49.540;8.390;2024-03-08T04:37:41;4.80;99.90
4695;DHT22;2361;49.540;8.390;2024-03-08T04:40:04;4.70;99.90
4695;DHT22;2361;49.540;8.390;2024-03-08T04:42:37;4.80;99.90
4695;DHT22;2361;49.540;8.390;2024-03-08T04:45:02;4.70;99.90
4695;DHT22;2361;49.540;8.390;2024-03-08T04:47:28;4.70;99.90
4695;DHT22;2361;49.540;8.390;2024-03-08T04:49:51;4.70;99.90
4695;DHT22;2361;49.540;8.390;2024-03-08T04:52:17;4.60;99.90
4695;DHT22;2361;49.540;8.390;2024-03-08T04:54:39;4.60;99.90
4695;DHT22;2361;49.540;8.390;2024-03-08T04:57:01;4.50;99.90
4695;DHT22;2361;49.540;8.390;2024-03-08T04:59:27;4.60;99.90
4695;DHT22;2361;49.540;8.390;2024-03-08T05:01:49;4.50;99.90
4695;DHT22;2361;49.540;8.390;2024-03-08T05:04:11;4.50;99.90
4695;DHT22;2361;49.540;8.390;2024-03-08T05:06:33;4.50;99.90
4695;DHT22;2361;49.540;8.390;2024-03-08T05:08:55;4.50;99.90
4695;DHT22;2361;49.540;8.390;2024-03-08T05:11:17;4.50;99.90
4695;DHT22;2361;49.540;8.390;2024-03-08T05:13:39;4.50;99.90
4695;DHT22;2361;49.540;8.390;2024-03-08T05:16:01;4.50;99.90
4695;DHT22;2361;49.540;8.390;2024-03-08T05:18:24;4.50;99.90
4695;DHT22;2361;49.540;8.390;2024-03-08T05:20:46;4.50;99.90
4695;DHT22;2361;49.540;8.390;2024-03-08T05:23:08;4.50;99.90
4695;DHT22;2361;49.540;8.390;2024-03-08T05:25:30;4.50;99.90
4695;DHT22;2361;49.540;8.390;2024-03-08T05:27:53;4.40;99.90
4695;DHT22;2361;49.540;8.390;2024-03-08T05:30:15;4.30;99.90
4695;DHT22;2361;49.540;8.390;2024-03-08T05:32:37;4.30;99.90
4695;DHT22;2361;49.540;8.390;2024-03-08T05:34:59;4.30;99.90
4695;DHT22;2361;49.540;8.390;2024-03-08T05:37:21;4.30;99.90
4695;DHT22;2361;49.540;8.390;2024-03-08T05:39:43;4.30;99.90
4695;DHT22;2361;49.540;8.390;2024-03-08T05:42:06;4.30;99.90
4695;DHT22;2361;49.540;8.390;2024-03-08T05:44:30;4.40;99.90
4695;DHT22;2361;49.540;8.390;2024-03-08T05:46:52;4.40;99.90
4695;DHT22;2361;49.540;8.390;2024-03-08T05:49:14;4.40;99.90
4695;DHT22;2361;49.540;8.390;2024-03-08T05:51:37;4.40;99.90
4695;DHT22;2361;49.540;8.390;2024-03-08T05:54:01;4.40;99.90
4695;DHT22;2361;49.540;8.390;2024-03-08T05:56:30;4.40;99.90
4695;DHT22;2361;49.540;8.390;2024-03-08T05:58:53;4.40;99.90
4695;DHT22;2361;49.540;8.390;2024-03-08T06:01:15;4.40;99.90
4695;DHT22;2361;49.540;8.390;2024-03-08T06:03:38;4.40;99.90
4695;DHT22;2361;49.540;8.390;2024-03-08T06:06:06;4.30;99.90
4695;DHT22;2361;49.540;8.390;2024-03-08T06:08:28;4.40;99.90
4695;DHT22;2361;49.540;8.390;2024-03-08T06:10:52;4.40;99.90
4695;DHT22;2361;49.540;8.390;2024-03-08T06:13:14;4.50;99.90
4695;DHT22;2361;49.540;8.390;2024-03-08T06:15:36;4.50;99.90
4695;DHT22;2361;49.540;8.390;2024-03-08T06:17:58;4.60;99.90
4695;DHT22;2361;49.540;8.390;2024-03-08T06:20:20;4.80;99.90
4695;DHT22;2361;49.540;8.390;2024-03-08T06:22:42;4.90;99.90
4695;DHT22;2361;49.540;8.390;2024-03-08T06:25:06;5.10;99.90
4695;DHT22;2361;49.540;8.390;2024-03-08T06:27:35;5.50;99.90
4695;DHT22;2361;49.540;8.390;2024-03-08T06:29:57;5.90;99.90
4695;DHT22;2361;49.540;8.390;2024-03-08T06:32:19;6.40;99.90
4695;DHT22;2361;49.540;8.390;2024-03-08T06:34:41;6.80;99.90
4695;DHT22;2361;49.540;8.390;2024-03-08T06:37:03;7.20;99.90
4695;DHT22;2361;49.540;8.390;2024-03-08T06:39:25;7.60;99.90
4695;DHT22;2361;49.540;8.390;2024-03-08T06:41:47;7.90;99.90
4695;DHT22;2361;49.540;8.390;2024-03-08T06:44:09;8.20;99.90
4695;DHT22;2361;49.540;8.390;2024-03-08T06:46:31;8.50;99.90
4695;DHT22;2361;49.540;8.390;2024-03-08T06:48:53;9.00;99.90
4695;DHT22;2361;49.540;8.390;2024-03-08T06:51:15;9.40;99.90
4695;DHT22;2361;49.540;8.390;2024-03-08T06:53:38;9.80;99.90
4695;DHT22;2361;49.540;8.390;2024-03-08T06:56:01;10.20;99.90
4695;DHT22;2361;49.540;8.390;2024-03-08T06:58:24;10.70;99.90
4695;DHT22;2361;49.540;8.390;2024-03-08T07:00:46;11.00;99.90
4695;DHT22;2361;49.540;8.390;2024-03-08T07:03:08;11.50;99.90
4695;DHT22;2361;49.540;8.390;2024-03-08T07:05:33;11.90;99.90
4695;DHT22;2361;49.540;8.390;2024-03-08T07:07:56;11.90;99.90
4695;DHT22;2361;49.540;8.390;2024-03-08T07:10:18;12.20;99.90
4695;DHT22;2361;49.540;8.390;2024-03-08T07:12:41;12.50;99.50
4695;DHT22;2361;49.540;8.390;2024-03-08T07:15:05;12.90;98.10
4695;DHT22;2361;49.540;8.390;2024-03-08T07:17:28;13.20;97.20
4695;DHT22;2361;49.540;8.390;2024-03-08T07:19:50;13.60;96.70
4695;DHT22;2361;49.540;8.390;2024-03-08T07:22:12;13.90;95.50
4695;DHT22;2361;49.540;8.390;2024-03-08T07:24:35;14.30;94.50
4695;DHT22;2361;49.540;8.390;2024-03-08T07:27:17;14.70;93.80
4695;DHT22;2361;49.540;8.390;2024-03-08T07:29:39;15.30;92.50
4695;DHT22;2361;49.540;8.390;2024-03-08T07:32:01;15.80;91.10
4695;DHT22;2361;49.540;8.390;2024-03-08T07:34:36;16.20;90.20
4695;DHT22;2361;49.540;8.390;2024-03-08T07:36:58;16.60;86.90
4695;DHT22;2361;49.540;8.390;2024-03-08T07:39:21;16.70;84.80
4695;DHT22;2361;49.540;8.390;2024-03-08T07:41:45;16.90;84.80
4695;DHT22;2361;49.540;8.390;2024-03-08T07:44:07;17.20;83.10
4695;DHT22;2361;49.540;8.390;2024-03-08T07:46:29;17.70;80.60
4695;DHT22;2361;49.540;8.390;2024-03-08T07:48:53;18.10;78.70
4695;DHT22;2361;49.540;8.390;2024-03-08T07:51:18;18.30;76.40
4695;DHT22;2361;49.540;8.390;2024-03-08T07:53:39;18.50;75.70
4695;DHT22;2361;49.540;8.390;2024-03-08T07:56:03;18.70;74.20
4695;DHT22;2361;49.540;8.390;2024-03-08T07:58:26;19.20;72.00
4695;DHT22;2361;49.540;8.390;2024-03-08T08:00:48;19.50;69.80
4695;DHT22;2361;49.540;8.390;2024-03-08T08:03:10;17.90;71.50
4695;DHT22;2361;49.540;8.390;2024-03-08T08:05:32;17.30;71.70
4695;DHT22;2361;49.540;8.390;2024-03-08T08:07:57;16.40;72.60
4695;DHT22;2361;49.540;8.390;2024-03-08T08:10:19;15.60;74.40
4695;DHT22;2361;49.540;8.390;2024-03-08T08:12:44;15.30;75.50
4695;DHT22;2361;49.540;8.390;2024-03-08T08:15:07;14.70;77.00
4695;DHT22;2361;49.540;8.390;2024-03-08T08:17:29;14.20;78.70
4695;DHT22;2361;49.540;8.390;2024-03-08T08:19:50;14.00;79.10
4695;DHT22;2361;49.540;8.390;2024-03-08T08:22:12;13.60;80.50
4695;DHT22;2361;49.540;8.390;2024-03-08T08:24:35;13.80;80.90
4695;DHT22;2361;49.540;8.390;2024-03-08T08:26:58;14.50;79.60
4695;DHT22;2361;49.540;8.390;2024-03-08T08:29:21;15.00;78.40
4695;DHT22;2361;49.540;8.390;2024-03-08T08:31:44;15.40;76.80
4695;DHT22;2361;49.540;8.390;2024-03-08T08:34:08;15.00;77.10
4695;DHT22;2361;49.540;8.390;2024-03-08T08:36:31;14.70;77.40
4695;DHT22;2361;49.540;8.390;2024-03-08T08:38:53;14.30;78.90
4695;DHT22;2361;49.540;8.390;2024-03-08T08:41:20;14.10;79.00
4695;DHT22;2361;49.540;8.390;2024-03-08T08:43:43;13.80;79.80
4695;DHT22;2361;49.540;8.390;2024-03-08T08:46:18;14.20;79.50
4695;DHT22;2361;49.540;8.390;2024-03-08T08:48:41;15.10;78.40
4695;DHT22;2361;49.540;8.390;2024-03-08T08:51:03;15.70;76.20
4695;DHT22;2361;49.540;8.390;2024-03-08T08:53:28;15.60;75.90
4695;DHT22;2361;49.540;8.390;2024-03-08T08:55:50;15.10;76.30
4695;DHT22;2361;49.540;8.390;2024-03-08T08:58:11;14.70;77.20
4695;DHT22;2361;49.540;8.390;2024-03-08T09:00:35;14.80;77.20
4695;DHT22;2361;49.540;8.390;2024-03-08T09:02:57;15.90;75.50
4695;DHT22;2361;49.540;8.390;2024-03-08T09:05:20;16.40;74.00
4695;DHT22;2361;49.540;8.390;2024-03-08T09:07:46;16.80;73.30
4695;DHT22;2361;49.540;8.390;2024-03-08T09:10:08;17.80;72.10
4695;DHT22;2361;49.540;8.390;2024-03-08T09:12:34;19.60;67.70
4695;DHT22;2361;49.540;8.390;2024-03-08T09:14:56;20.70;65.00
4695;DHT22;2361;49.540;8.390;2024-03-08T09:17:17;21.80;61.80
4695;DHT22;2361;49.540;8.390;2024-03-08T09:19:42;21.90;60.20
4695;DHT22;2361;49.540;8.390;2024-03-08T09:22:04;21.50;59.30
4695;DHT22;2361;49.540;8.390;2024-03-08T09:24:26;21.10;59.80
4695;DHT22;2361;49.540;8.390;2024-03-08T09:26:48;20.90;59.40
4695;DHT22;2361;49.540;8.390;2024-03-08T09:29:10;20.50;59.20
4695;DHT22;2361;49.540;8.390;2024-03-08T09:31:33;19.30;60.80
4695;DHT22;2361;49.540;8.390;2024-03-08T09:33:55;19.40;61.10
4695;DHT22;2361;49.540;8.390;2024-03-08T09:36:17;20.30;59.80
4695;DHT22;2361;49.540;8.390;2024-03-08T09:38:39;20.30;59.20
4695;DHT22;2361;49.540;8.390;2024-03-08T09:41:04;20.30;59.00
4695;DHT22;2361;49.540;8.390;2024-03-08T09:43:26;20.90;58.30
4695;DHT22;2361;49.540;8.390;2024-03-08T09:45:49;22.10;57.10
4695;DHT22;2361;49.540;8.390;2024-03-08T09:48:11;22.60;54.70
4695;DHT22;2361;49.540;8.390;2024-03-08T09:50:35;20.90;56.20
4695;DHT22;2361;49.540;8.390;2024-03-08T09:52:58;19.80;58.30
4695;DHT22;2361;49.540;8.390;2024-03-08T09:55:21;19.40;58.70
4695;DHT22;2361;49.540;8.390;2024-03-08T09:57:45;19.60;58.80
4695;DHT22;2361;49.540;8.390;2024-03-08T10:00:26;20.10;57.90
4695;DHT22;2361;49.540;8.390;2024-03-08T10:02:49;19.60;59.50
4695;DHT22;2361;49.540;8.390;2024-03-08T10:05:12;19.30;59.30
4695;DHT22;2361;49.540;8.390;2024-03-08T10:07:35;20.90;57.40
4695;DHT22;2361;49.540;8.390;2024-03-08T10:09:57;21.40;56.40
4695;DHT22;2361;49.540;8.390;2024-03-08T10:12:19;21.80;55.40
4695;DHT22;2361;49.540;8.390;2024-03-08T10:14:41;22.60;54.70
4695;DHT22;2361;49.540;8.390;2024-03-08T10:17:03;23.20;52.60
4695;DHT22;2361;49.540;8.390;2024-03-08T10:19:27;23.80;52.30
4695;DHT22;2361;49.540;8.390;2024-03-08T10:21:58;24.80;50.60
4695;DHT22;2361;49.540;8.390;2024-03-08T10:24:20;24.70;50.50
4695;DHT22;2361;49.540;8.390;2024-03-08T10:26:42;25.10;50.20
4695;DHT22;2361;49.540;8.390;2024-03-08T10:29:05;25.50;49.10
4695;DHT22;2361;49.540;8.390;2024-03-08T10:31:27;26.20;48.70
4695;DHT22;2361;49.540;8.390;2024-03-08T10:33:49;25.60;46.90
4695;DHT22;2361;49.540;8.390;2024-03-08T10:36:12;23.60;49.60
4695;DHT22;2361;49.540;8.390;2024-03-08T10:38:37;24.10;48.90
4695;DHT22;2361;49.540;8.390;2024-03-08T10:41:02;24.90;48.60
4695;DHT22;2361;49.540;8.390;2024-03-08T10:43:25;25.00;48.00
4695;DHT22;2361;49.540;8.390;2024-03-08T10:46:01;25.20;48.90
4695;DHT22;2361;49.540;8.390;2024-03-08T10:48:43;24.80;47.80
4695;DHT22;2361;49.540;8.390;2024-03-08T10:51:08;23.00;49.80
4695;DHT22;2361;49.540;8.390;2024-03-08T10:53:33;20.90;52.40
4695;DHT22;2361;49.540;8.390;2024-03-08T10:55:57;19.30;54.70
4695;DHT22;2361;49.540;8.390;2024-03-08T10:58:27;18.30;56.80
4695;DHT22;2361;49.540;8.390;2024-03-08T11:00:49;18.10;57.70
4695;DHT22;2361;49.540;8.390;2024-03-08T11:06:50;16.40;61.00
4695;DHT22;2361;49.540;8.390;2024-03-08T11:11:51;14.40;65.60
4695;DHT22;2361;49.540;8.390;2024-03-08T11:14:42;14.30;66.30
4695;DHT22;2361;49.540;8.390;2024-03-08T11:17:06;14.10;67.00
4695;DHT22;2361;49.540;8.390;2024-03-08T11:19:30;13.90;66.60
4695;DHT22;2361;49.540;8.390;2024-03-08T11:22:00;13.40;69.00
4695;DHT22;2361;49.540;8.390;2024-03-08T11:24:24;13.00;70.00
4695;DHT22;2361;49.540;8.390;2024-03-08T11:26:46;12.50;71.80
4695;DHT22;2361;49.540;8.390;2024-03-08T11:32:11;11.90;74.10
4695;DHT22;2361;49.540;8.390;2024-03-08T11:34:37;11.90;75.10
4695;DHT22;2361;49.540;8.390;2024-03-08T11:36:59;11.70;76.60
4695;DHT22;2361;49.540;8.390;2024-03-08T11:39:22;11.50;77.20
4695;DHT22;2361;49.540;8.390;2024-03-08T11:41:45;11.40;77.30
4695;DHT22;2361;49.540;8.390;2024-03-08T11:44:08;11.10;78.10
4695;DHT22;2361;49.540;8.390;2024-03-08T11:46:32;11.00;79.50
4695;DHT22;2361;49.540;8.390;2024-03-08T11:48:55;10.80;81.30
4695;DHT22;2361;49.540;8.390;2024-03-08T11:51:20;10.70;81.80
4695;DHT22;2361;49.540;8.390;2024-03-08T11:53:42;10.50;83.40
4695;DHT22;2361;49.540;8.390;2024-03-08T11:56:08;10.30;84.40
4695;DHT22;2361;49.540;8.390;2024-03-08T11:58:31;10.20;85.20
4695;DHT22;2361;49.540;8.390;2024-03-08T12:01:05;10.30;86.40
4695;DHT22;2361;49.540;8.390;2024-03-08T12:03:34;10.10;87.90
4695;DHT22;2361;49.540;8.390;2024-03-08T12:05:59;10.10;88.70
4695;DHT22;2361;49.540;8.390;2024-03-08T12:08:21;10.20;90.10
4695;DHT22;2361;49.540;8.390;2024-03-08T12:10:43;10.30;90.20
4695;DHT22;2361;49.540;8.390;2024-03-08T12:13:06;10.40;90.40
4695;DHT22;2361;49.540;8.390;2024-03-08T12:15:34;10.40;90.50
4695;DHT22;2361;49.540;8.390;2024-03-08T12:17:56;10.30;90.70
4695;DHT22;2361;49.540;8.390;2024-03-08T12:22:45;10.30;91.50
4695;DHT22;2361;49.540;8.390;2024-03-08T12:25:07;10.30;91.50
4695;DHT22;2361;49.540;8.390;2024-03-08T12:27:32;10.30;92.20
4695;DHT22;2361;49.540;8.390;2024-03-08T12:29:54;10.30;91.90
4695;DHT22;2361;49.540;8.390;2024-03-08T12:32:17;10.20;92.00
4695;DHT22;2361;49.540;8.390;2024-03-08T12:34:39;10.10;92.20
4695;DHT22;2361;49.540;8.390;2024-03-08T12:37:01;10.10;92.60
4695;DHT22;2361;49.540;8.390;2024-03-08T12:39:24;10.10;92.50
4695;DHT22;2361;49.540;8.390;2024-03-08T12:41:49;10.10;93.00
4695;DHT22;2361;49.540;8.390;2024-03-08T12:44:14;10.20;92.80
4695;DHT22;2361;49.540;8.390;2024-03-08T12:46:39;10.20;93.00
4695;DHT22;2361;49.540;8.390;2024-03-08T12:49:02;10.20;93.00
4695;DHT22;2361;49.540;8.390;2024-03-08T12:51:26;10.00;93.00
4695;DHT22;2361;49.540;8.390;2024-03-08T12:53:51;9.90;93.60
4695;DHT22;2361;49.540;8.390;2024-03-08T12:56:29;10.00;94.20
4695;DHT22;2361;49.540;8.390;2024-03-08T12:58:52;10.00;93.90
4695;DHT22;2361;49.540;8.390;2024-03-08T13:01:15;9.90;94.00
4695;DHT22;2361;49.540;8.390;2024-03-08T13:03:37;9.90;94.00
4695;DHT22;2361;49.540;8.390;2024-03-08T13:05:59;10.00;94.40
4695;DHT22;2361;49.540;8.390;2024-03-08T13:08:21;10.00;94.50
4695;DHT22;2361;49.540;8.390;2024-03-08T13:10:46;10.10;94.80
4695;DHT22;2361;49.540;8.390;2024-03-08T13:13:08;10.00;94.60
4695;DHT22;2361;49.540;8.390;2024-03-08T13:15:31;10.10;94.70
4695;DHT22;2361;49.540;8.390;2024-03-08T13:17:55;10.10;94.70
4695;DHT22;2361;49.540;8.390;2024-03-08T13:20:19;10.10;94.80
4695;DHT22;2361;49.540;8.390;2024-03-08T13:22:48;10.20;94.70
4695;DHT22;2361;49.540;8.390;2024-03-08T13:25:10;10.20;94.60
4695;DHT22;2361;49.540;8.390;2024-03-08T13:27:34;10.20;94.70
4695;DHT22;2361;49.540;8.390;2024-03-08T13:29:58;10.30;94.90
4695;DHT22;2361;49.540;8.390;2024-03-08T13:32:20;10.40;94.60
4695;DHT22;2361;49.540;8.390;2024-03-08T13:34:44;10.40;94.40
4695;DHT22;2361;49.540;8.390;2024-03-08T13:37:15;10.50;95.40
4695;DHT22;2361;49.540;8.390;2024-03-08T13:39:38;10.60;95.50
4695;DHT22;2361;49.540;8.390;2024-03-08T13:42:05;10.70;94.50
4695;DHT22;2361;49.540;8.390;2024-03-08T13:44:31;10.70;94.40
4695;DHT22;2361;49.540;8.390;2024-03-08T13:46:53;10.70;94.30
4695;DHT22;2361;49.540;8.390;2024-03-08T13:49:15;10.60;93.90
4695;DHT22;2361;49.540;8.390;2024-03-08T13:51:37;10.60;94.00
4695;DHT22;2361;49.540;8.390;2024-03-08T13:54:00;10.50;93.90
4695;DHT22;2361;49.540;8.390;2024-03-08T13:56:22;10.50;94.20
4695;DHT22;2361;49.540;8.390;2024-03-08T13:58:44;10.50;94.30
4695;DHT22;2361;49.540;8.390;2024-03-08T14:01:07;10.60;94.40
4695;DHT22;2361;49.540;8.390;2024-03-08T14:03:33;10.70;94.50
4695;DHT22;2361;49.540;8.390;2024-03-08T14:05:56;10.80;94.00
4695;DHT22;2361;49.540;8.390;2024-03-08T14:08:19;10.80;94.40
4695;DHT22;2361;49.540;8.390;2024-03-08T14:10:41;10.80;94.00
4695;DHT22;2361;49.540;8.390;2024-03-08T14:13:04;10.80;93.70
4695;DHT22;2361;49.540;8.390;2024-03-08T14:15:28;10.80;94.00
4695;DHT22;2361;49.540;8.390;2024-03-08T14:17:55;10.80;94.20
4695;DHT22;2361;49.540;8.390;2024-03-08T14:20:17;10.80;94.20
4695;DHT22;2361;49.540;8.390;2024-03-08T14:22:39;10.90;94.30
4695;DHT22;2361;49.540;8.390;2024-03-08T14:25:01;11.00;94.40
4695;DHT22;2361;49.540;8.390;2024-03-08T14:27:26;11.00;94.70
4695;DHT22;2361;49.540;8.390;2024-03-08T14:29:48;11.00;94.50
4695;DHT22;2361;49.540;8.390;2024-03-08T14:32:10;11.10;94.00
4695;DHT22;2361;49.540;8.390;2024-03-08T14:34:34;11.10;94.10
4695;DHT22;2361;49.540;8.390;2024-03-08T14:36:56;11.20;93.90
4695;DHT22;2361;49.540;8.390;2024-03-08T14:39:18;11.20;93.50
4695;DHT22;2361;49.540;8.390;2024-03-08T14:41:43;11.20;93.70
4695;DHT22;2361;49.540;8.390;2024-03-08T14:44:05;11.20;93.90
4695;DHT22;2361;49.540;8.390;2024-03-08T14:46:28;11.20;93.90
4695;DHT22;2361;49.540;8.390;2024-03-08T14:48:50;11.30;93.80
4695;DHT22;2361;49.540;8.390;2024-03-08T14:51:14;11.20;94.00
4695;DHT22;2361;49.540;8.390;2024-03-08T14:53:37;11.20;94.00
4695;DHT22;2361;49.540;8.390;2024-03-08T14:56:02;11.20;94.20
4695;DHT22;2361;49.540;8.390;2024-03-08T14:58:25;11.30;94.10
4695;DHT22;2361;49.540;8.390;2024-03-08T15:00:51;11.40;94.30
4695;DHT22;2361;49.540;8.390;2024-03-08T15:03:16;11.50;94.00
4695;DHT22;2361;49.540;8.390;2024-03-08T15:05:39;11.60;93.60
4695;DHT22;2361;49.540;8.390;2024-03-08T15:08:04;11.70;93.80
4695;DHT22;2361;49.540;8.390;2024-03-08T15:10:32;11.70;93.70
4695;DHT22;2361;49.540;8.390;2024-03-08T15:12:55;11.70;93.60
4695;DHT22;2361;49.540;8.390;2024-03-08T15:15:18;11.70;93.60
4695;DHT22;2361;49.540;8.390;2024-03-08T15:17:40;11.70;93.50
4695;DHT22;2361;49.540;8.390;2024-03-08T15:20:02;11.70;93.80
4695;DHT22;2361;49.540;8.390;2024-03-08T15:22:25;11.70;93.80
4695;DHT22;2361;49.540;8.390;2024-03-08T15:24:47;11.70;93.50
4695;DHT22;2361;49.540;8.390;2024-03-08T15:27:09;11.80;93.60
4695;DHT22;2361;49.540;8.390;2024-03-08T15:29:31;11.80;93.80
4695;DHT22;2361;49.540;8.390;2024-03-08T15:31:54;11.80;93.60
4695;DHT22;2361;49.540;8.390;2024-03-08T15:34:16;11.80;93.10
4695;DHT22;2361;49.540;8.390;2024-03-08T15:36:40;11.70;93.00
4695;DHT22;2361;49.540;8.390;2024-03-08T15:39:04;11.70;93.10
4695;DHT22;2361;49.540;8.390;2024-03-08T15:41:31;11.70;93.60
4695;DHT22;2361;49.540;8.390;2024-03-08T15:43:53;11.70;93.50
4695;DHT22;2361;49.540;8.390;2024-03-08T15:46:16;11.70;93.80
4695;DHT22;2361;49.540;8.390;2024-03-08T15:48:39;11.80;93.20
4695;DHT22;2361;49.540;8.390;2024-03-08T15:51:04;11.80;93.20
4695;DHT22;2361;49.540;8.390;2024-03-08T15:53:35;11.70;93.40
4695;DHT22;2361;49.540;8.390;2024-03-08T15:55:58;11.70;93.10